sensor_id;sensor_type;location;lat;lon;timestamp;temperature;humidity
39219;DHT22;24934;52.752;6.964;2022-12-18T00:01:14;-4.50;99.90
39219;DHT22;24934;52.752;6.964;2022-12-18T00:03:39;-4.50;99.90
39219;DHT22;24934;52.752;6.964;2022-12-18T00:06:07;-4.50;99.90
39219;DHT22;24934;52.752;6.964;2022-12-18T00:08:34;-4.50;99.90
39219;DHT22;24934;52.752;6.964;2022-12-18T00:11:23;-4.60;99.90
39219;DHT22;24934;52.752;6.964;2022-12-18T00:13:49;-4.60;99.90
39219;DHT22;24934;52.752;6.964;2022-12-18T00:16:18;-4.60;99.90
39219;DHT22;24934;52.752;6.964;2022-12-18T00:18:46;-4.60;99.90
39219;DHT22;24934;52.752;6.964;2022-12-18T00:21:13;-4.70;99.90
39219;DHT22;24934;52.752;6.964;2022-12-18T00:23:40;-4.70;99.90
39219;DHT22;24934;52.752;6.964;2022-12-18T00:26:12;-4.80;99.90
39219;DHT22;24934;52.752;6.964;2022-12-18T00:28:41;-4.90;99.90
39219;DHT22;24934;52.752;6.964;2022-12-18T00:31:11;-4.90;99.90
39219;DHT22;24934;52.752;6.964;2022-12-18T00:33:37;-5.00;99.90
39219;DHT22;24934;52.752;6.964;2022-12-18T00:36:04;-5.10;99.90
39219;DHT22;24934;52.752;6.964;2022-12-18T00:38:33;-5.20;99.90
39219;DHT22;24934;52.752;6.964;2022-12-18T00:40:59;-5.30;99.90
39219;DHT22;24934;52.752;6.964;2022-12-18T00:43:25;-5.40;99.90
39219;DHT22;24934;52.752;6.964;2022-12-18T00:45:51;-5.40;99.90
39219;DHT22;24934;52.752;6.964;2022-12-18T00:48:17;-5.50;99.90
39219;DHT22;24934;52.752;6.964;2022-12-18T00:50:42;-5.60;99.90
39219;DHT22;24934;52.752;6.964;2022-12-18T00:53:08;-5.60;99.90
39219;DHT22;24934;52.752;6.964;2022-12-18T00:55:40;-5.60;99.90
39219;DHT22;24934;52.752;6.964;2022-12-18T00:58:06;-5.60;99.90
39219;DHT22;24934;52.752;6.964;2022-12-18T01:00:32;-5.60;99.90
39219;DHT22;24934;52.752;6.964;2022-12-18T01:02:57;-5.60;99.90
39219;DHT22;24934;52.752;6.964;2022-12-18T01:05:23;-5.60;99.90
39219;DHT22;24934;52.752;6.964;2022-12-18T01:07:51;-5.60;99.90
39219;DHT22;24934;52.752;6.964;2022-12-18T01:10:17;-5.70;99.90
39219;DHT22;24934;52.752;6.964;2022-12-18T01:12:43;-5.70;99.90
39219;DHT22;24934;52.752;6.964;2022-12-18T01:15:10;-5.70;99.90
39219;DHT22;24934;52.752;6.964;2022-12-18T01:17:36;-5.80;99.90
39219;DHT22;24934;52.752;6.964;2022-12-18T01:20:03;-5.80;99.90
39219;DHT22;24934;52.752;6.964;2022-12-18T01:22:28;-5.90;99.90
39219;DHT22;24934;52.752;6.964;2022-12-18T01:24:54;-6.00;99.90
39219;DHT22;24934;52.752;6.964;2022-12-18T01:27:20;-6.00;99.90
39219;DHT22;24934;52.752;6.964;2022-12-18T01:29:45;-6.20;99.90
39219;DHT22;24934;52.752;6.964;2022-12-18T01:32:11;-6.30;99.90
39219;DHT22;24934;52.752;6.964;2022-12-18T01:34:37;-6.30;99.90
39219;DHT22;24934;52.752;6.964;2022-12-18T01:37:06;-6.40;99.90
39219;DHT22;24934;52.752;6.964;2022-12-18T01:39:32;-6.50;99.90
39219;DHT22;24934;52.752;6.964;2022-12-18T01:42:11;-6.50;99.90
39219;DHT22;24934;52.752;6.964;2022-12-18T01:47:23;-6.70;99.90
39219;DHT22;24934;52.752;6.964;2022-12-18T01:49:50;-6.70;99.90
39219;DHT22;24934;52.752;6.964;2022-12-18T01:52:17;-6.80;99.90
39219;DHT22;24934;52.752;6.964;2022-12-18T01:54:44;-6.80;99.90
39219;DHT22;24934;52.752;6.964;2022-12-18T01:57:10;-6.90;99.90
39219;DHT22;24934;52.752;6.964;2022-12-18T01:59:37;-6.90;99.90
39219;DHT22;24934;52.752;6.964;2022-12-18T02:02:04;-7.00;99.90
39219;DHT22;24934;52.752;6.964;2022-12-18T02:04:29;-7.00;99.90
39219;DHT22;24934;52.752;6.964;2022-12-18T02:09:33;-7.10;99.90
39219;DHT22;24934;52.752;6.964;2022-12-18T02:12:12;-7.00;99.90
39219;DHT22;24934;52.752;6.964;2022-12-18T02:14:55;-7.00;99.90
39219;DHT22;24934;52.752;6.964;2022-12-18T02:17:54;-7.00;99.90
39219;DHT22;24934;52.752;6.964;2022-12-18T02:28:31;-7.10;99.90
39219;DHT22;24934;52.752;6.964;2022-12-18T02:31:01;-7.00;99.90
39219;DHT22;24934;52.752;6.964;2022-12-18T02:33:28;-7.10;99.90
39219;DHT22;24934;52.752;6.964;2022-12-18T02:36:01;-7.10;99.90
39219;DHT22;24934;52.752;6.964;2022-12-18T02:38:29;-7.20;99.90
39219;DHT22;24934;52.752;6.964;2022-12-18T02:40:56;-7.20;99.90
39219;DHT22;24934;52.752;6.964;2022-12-18T02:43:23;-7.30;99.90
39219;DHT22;24934;52.752;6.964;2022-12-18T02:45:58;-7.30;99.90
39219;DHT22;24934;52.752;6.964;2022-12-18T02:48:32;-7.30;99.90
39219;DHT22;24934;52.752;6.964;2022-12-18T02:51:29;-7.30;99.90
39219;DHT22;24934;52.752;6.964;2022-12-18T02:54:10;-7.20;99.90
39219;DHT22;24934;52.752;6.964;2022-12-18T02:56:44;-7.30;99.90
39219;DHT22;24934;52.752;6.964;2022-12-18T02:59:15;-7.40;99.90
39219;DHT22;24934;52.752;6.964;2022-12-18T03:01:51;-7.40;99.90
39219;DHT22;24934;52.752;6.964;2022-12-18T03:04:30;-7.40;99.90
39219;DHT22;24934;52.752;6.964;2022-12-18T03:07:01;-7.40;99.90
39219;DHT22;24934;52.752;6.964;2022-12-18T03:09:33;-7.40;99.90
39219;DHT22;24934;52.752;6.964;2022-12-18T03:12:10;-7.50;99.90
39219;DHT22;24934;52.752;6.964;2022-12-18T03:15:06;-7.50;99.90
39219;DHT22;24934;52.752;6.964;2022-12-18T03:17:34;-7.50;99.90
39219;DHT22;24934;52.752;6.964;2022-12-18T03:20:07;-7.50;99.90
39219;DHT22;24934;52.752;6.964;2022-12-18T03:22:34;-7.60;99.90
39219;DHT22;24934;52.752;6.964;2022-12-18T03:25:03;-7.60;99.90
39219;DHT22;24934;52.752;6.964;2022-12-18T03:27:32;-7.50;99.90
39219;DHT22;24934;52.752;6.964;2022-12-18T03:30:07;-7.50;99.90
39219;DHT22;24934;52.752;6.964;2022-12-18T03:33:02;-7.50;99.90
39219;DHT22;24934;52.752;6.964;2022-12-18T03:35:29;-7.50;99.90
39219;DHT22;24934;52.752;6.964;2022-12-18T03:37:56;-7.50;99.90
39219;DHT22;24934;52.752;6.964;2022-12-18T03:40:31;-7.50;99.90
39219;DHT22;24934;52.752;6.964;2022-12-18T03:45:51;-7.60;99.90
39219;DHT22;24934;52.752;6.964;2022-12-18T03:48:20;-7.60;99.90
39219;DHT22;24934;52.752;6.964;2022-12-18T03:51:00;-7.60;99.90
39219;DHT22;24934;52.752;6.964;2022-12-18T03:53:53;-7.70;99.90
39219;DHT22;24934;52.752;6.964;2022-12-18T03:56:25;-7.70;99.90
39219;DHT22;24934;52.752;6.964;2022-12-18T03:58:52;-7.70;99.90
39219;DHT22;24934;52.752;6.964;2022-12-18T04:01:20;-7.70;99.90
39219;DHT22;24934;52.752;6.964;2022-12-18T04:03:49;-7.80;99.90
39219;DHT22;24934;52.752;6.964;2022-12-18T04:06:16;-7.70;99.90
39219;DHT22;24934;52.752;6.964;2022-12-18T04:08:42;-7.70;99.90
39219;DHT22;24934;52.752;6.964;2022-12-18T04:11:08;-7.80;99.90
39219;DHT22;24934;52.752;6.964;2022-12-18T04:13:37;-7.80;99.90
39219;DHT22;24934;52.752;6.964;2022-12-18T04:16:03;-7.80;99.90
39219;DHT22;24934;52.752;6.964;2022-12-18T04:18:30;-7.90;99.90
39219;DHT22;24934;52.752;6.964;2022-12-18T04:20:58;-7.90;99.90
39219;DHT22;24934;52.752;6.964;2022-12-18T04:23:24;-8.00;99.90
39219;DHT22;24934;52.752;6.964;2022-12-18T04:25:49;-8.00;99.90
39219;DHT22;24934;52.752;6.964;2022-12-18T04:28:15;-7.90;99.90
39219;DHT22;24934;52.752;6.964;2022-12-18T04:30:41;-7.90;99.90
39219;DHT22;24934;52.752;6.964;2022-12-18T04:33:10;-7.80;99.90
39219;DHT22;24934;52.752;6.964;2022-12-18T04:35:38;-7.80;99.90
39219;DHT22;24934;52.752;6.964;2022-12-18T04:38:04;-7.90;99.90
39219;DHT22;24934;52.752;6.964;2022-12-18T04:40:30;-7.90;99.90
39219;DHT22;24934;52.752;6.964;2022-12-18T04:42:56;-8.00;99.90
39219;DHT22;24934;52.752;6.964;2022-12-18T04:45:21;-8.00;99.90
39219;DHT22;24934;52.752;6.964;2022-12-18T04:47:47;-8.00;99.90
39219;DHT22;24934;52.752;6.964;2022-12-18T04:50:13;-8.00;99.90
39219;DHT22;24934;52.752;6.964;2022-12-18T04:52:38;-8.00;99.90
39219;DHT22;24934;52.752;6.964;2022-12-18T04:55:04;-8.10;99.90
39219;DHT22;24934;52.752;6.964;2022-12-18T04:57:30;-8.10;99.90
39219;DHT22;24934;52.752;6.964;2022-12-18T04:59:55;-8.10;99.90
39219;DHT22;24934;52.752;6.964;2022-12-18T05:02:21;-8.20;99.90
39219;DHT22;24934;52.752;6.964;2022-12-18T05:04:50;-8.20;99.90
39219;DHT22;24934;52.752;6.964;2022-12-18T05:07:15;-8.20;99.90
39219;DHT22;24934;52.752;6.964;2022-12-18T05:09:41;-8.20;99.90
39219;DHT22;24934;52.752;6.964;2022-12-18T05:12:06;-8.30;99.90
39219;DHT22;24934;52.752;6.964;2022-12-18T05:14:32;-8.40;99.90
39219;DHT22;24934;52.752;6.964;2022-12-18T05:16:58;-8.40;99.90
39219;DHT22;24934;52.752;6.964;2022-12-18T05:19:24;-8.50;99.90
39219;DHT22;24934;52.752;6.964;2022-12-18T05:21:49;-8.50;99.90
39219;DHT22;24934;52.752;6.964;2022-12-18T05:24:15;-8.50;99.90
39219;DHT22;24934;52.752;6.964;2022-12-18T05:26:41;-8.40;99.90
39219;DHT22;24934;52.752;6.964;2022-12-18T05:29:06;-8.50;99.90
39219;DHT22;24934;52.752;6.964;2022-12-18T05:31:32;-8.50;99.90
39219;DHT22;24934;52.752;6.964;2022-12-18T05:33:57;-8.50;99.90
39219;DHT22;24934;52.752;6.964;2022-12-18T05:36:23;-8.50;99.90
39219;DHT22;24934;52.752;6.964;2022-12-18T05:38:49;-8.50;99.90
39219;DHT22;24934;52.752;6.964;2022-12-18T05:41:17;-8.50;99.90
39219;DHT22;24934;52.752;6.964;2022-12-18T05:43:43;-8.50;99.90
39219;DHT22;24934;52.752;6.964;2022-12-18T05:46:13;-8.40;99.90
39219;DHT22;24934;52.752;6.964;2022-12-18T05:48:39;-8.40;99.90
39219;DHT22;24934;52.752;6.964;2022-12-18T05:51:11;-8.50;99.90
39219;DHT22;24934;52.752;6.964;2022-12-18T05:53:37;-8.40;99.90
39219;DHT22;24934;52.752;6.964;2022-12-18T05:56:05;-8.40;99.90
39219;DHT22;24934;52.752;6.964;2022-12-18T05:58:32;-8.40;99.90
39219;DHT22;24934;52.752;6.964;2022-12-18T06:01:16;-8.40;99.90
39219;DHT22;24934;52.752;6.964;2022-12-18T06:03:45;-8.40;99.90
39219;DHT22;24934;52.752;6.964;2022-12-18T06:06:29;-8.40;99.90
39219;DHT22;24934;52.752;6.964;2022-12-18T06:08:55;-8.40;99.90
39219;DHT22;24934;52.752;6.964;2022-12-18T06:11:23;-8.40;99.90
39219;DHT22;24934;52.752;6.964;2022-12-18T06:13:51;-8.30;99.90
39219;DHT22;24934;52.752;6.964;2022-12-18T06:16:17;-8.30;99.90
39219;DHT22;24934;52.752;6.964;2022-12-18T06:18:42;-8.30;99.90
39219;DHT22;24934;52.752;6.964;2022-12-18T06:21:08;-8.40;99.90
39219;DHT22;24934;52.752;6.964;2022-12-18T06:23:34;-8.50;99.90
39219;DHT22;24934;52.752;6.964;2022-12-18T06:26:10;-8.40;99.90
39219;DHT22;24934;52.752;6.964;2022-12-18T06:28:35;-8.50;99.90
39219;DHT22;24934;52.752;6.964;2022-12-18T06:31:03;-8.50;99.90
39219;DHT22;24934;52.752;6.964;2022-12-18T06:33:29;-8.50;99.90
39219;DHT22;24934;52.752;6.964;2022-12-18T06:36:00;-8.50;99.90
39219;DHT22;24934;52.752;6.964;2022-12-18T06:38:26;-8.60;99.90
39219;DHT22;24934;52.752;6.964;2022-12-18T06:40:54;-8.60;99.90
39219;DHT22;24934;52.752;6.964;2022-12-18T06:43:20;-8.50;99.90
39219;DHT22;24934;52.752;6.964;2022-12-18T06:45:46;-8.40;99.90
39219;DHT22;24934;52.752;6.964;2022-12-18T06:48:18;-8.40;99.90
39219;DHT22;24934;52.752;6.964;2022-12-18T06:50:45;-8.40;99.90
39219;DHT22;24934;52.752;6.964;2022-12-18T06:53:10;-8.40;99.90
39219;DHT22;24934;52.752;6.964;2022-12-18T06:55:36;-8.40;99.90
39219;DHT22;24934;52.752;6.964;2022-12-18T06:58:02;-8.40;99.90
39219;DHT22;24934;52.752;6.964;2022-12-18T07:00:27;-8.40;99.90
39219;DHT22;24934;52.752;6.964;2022-12-18T07:02:53;-8.30;99.90
39219;DHT22;24934;52.752;6.964;2022-12-18T07:05:18;-8.20;99.90
39219;DHT22;24934;52.752;6.964;2022-12-18T07:07:47;-8.10;99.90
39219;DHT22;24934;52.752;6.964;2022-12-18T07:10:12;-7.90;99.90
39219;DHT22;24934;52.752;6.964;2022-12-18T07:12:38;-7.90;99.90
39219;DHT22;24934;52.752;6.964;2022-12-18T07:15:04;-7.70;99.90
39219;DHT22;24934;52.752;6.964;2022-12-18T07:17:30;-7.60;99.90
39219;DHT22;24934;52.752;6.964;2022-12-18T07:19:55;-7.60;99.90
39219;DHT22;24934;52.752;6.964;2022-12-18T07:22:21;-7.50;99.90
39219;DHT22;24934;52.752;6.964;2022-12-18T07:24:47;-7.40;99.90
39219;DHT22;24934;52.752;6.964;2022-12-18T07:27:16;-7.30;99.90
39219;DHT22;24934;52.752;6.964;2022-12-18T07:29:42;-7.30;99.90
39219;DHT22;24934;52.752;6.964;2022-12-18T07:32:07;-7.10;99.90
39219;DHT22;24934;52.752;6.964;2022-12-18T07:34:34;-7.10;99.90
39219;DHT22;24934;52.752;6.964;2022-12-18T07:36:59;-7.10;99.90
39219;DHT22;24934;52.752;6.964;2022-12-18T07:39:25;-7.10;99.90
39219;DHT22;24934;52.752;6.964;2022-12-18T07:41:51;-7.10;99.90
39219;DHT22;24934;52.752;6.964;2022-12-18T07:44:35;-7.10;99.90
39219;DHT22;24934;52.752;6.964;2022-12-18T07:47:01;-7.20;99.90
39219;DHT22;24934;52.752;6.964;2022-12-18T07:49:30;-7.30;99.90
39219;DHT22;24934;52.752;6.964;2022-12-18T07:51:56;-7.30;99.90
39219;DHT22;24934;52.752;6.964;2022-12-18T07:54:23;-7.30;99.90
39219;DHT22;24934;52.752;6.964;2022-12-18T07:56:49;-7.20;99.90
39219;DHT22;24934;52.752;6.964;2022-12-18T07:59:14;-7.20;99.90
39219;DHT22;24934;52.752;6.964;2022-12-18T08:01:40;-7.10;99.90
39219;DHT22;24934;52.752;6.964;2022-12-18T08:04:05;-7.10;99.90
39219;DHT22;24934;52.752;6.964;2022-12-18T08:06:31;-7.00;99.90
39219;DHT22;24934;52.752;6.964;2022-12-18T08:08:57;-7.00;99.90
39219;DHT22;24934;52.752;6.964;2022-12-18T08:11:26;-6.90;99.90
39219;DHT22;24934;52.752;6.964;2022-12-18T08:13:52;-6.90;99.90
39219;DHT22;24934;52.752;6.964;2022-12-18T08:16:18;-6.80;99.90
39219;DHT22;24934;52.752;6.964;2022-12-18T08:18:44;-6.80;99.90
39219;DHT22;24934;52.752;6.964;2022-12-18T08:23:41;-6.60;99.90
39219;DHT22;24934;52.752;6.964;2022-12-18T08:26:07;-6.60;99.90
39219;DHT22;24934;52.752;6.964;2022-12-18T08:28:35;-6.50;99.90
39219;DHT22;24934;52.752;6.964;2022-12-18T08:31:01;-6.40;99.90
39219;DHT22;24934;52.752;6.964;2022-12-18T08:33:29;-6.30;99.90
39219;DHT22;24934;52.752;6.964;2022-12-18T08:35:58;-6.10;99.90
39219;DHT22;24934;52.752;6.964;2022-12-18T08:38:24;-6.00;99.90
39219;DHT22;24934;52.752;6.964;2022-12-18T08:40:58;-5.90;99.90
39219;DHT22;24934;52.752;6.964;2022-12-18T08:43:25;-5.80;99.90
39219;DHT22;24934;52.752;6.964;2022-12-18T08:46:09;-5.80;99.90
39219;DHT22;24934;52.752;6.964;2022-12-18T08:48:34;-5.70;99.90
39219;DHT22;24934;52.752;6.964;2022-12-18T08:51:01;-5.70;99.90
39219;DHT22;24934;52.752;6.964;2022-12-18T08:53:27;-5.60;99.90
39219;DHT22;24934;52.752;6.964;2022-12-18T08:55:53;-5.50;99.90
39219;DHT22;24934;52.752;6.964;2022-12-18T08:58:19;-5.40;99.90
39219;DHT22;24934;52.752;6.964;2022-12-18T09:00:45;-5.40;99.90
39219;DHT22;24934;52.752;6.964;2022-12-18T09:03:14;-5.30;99.90
39219;DHT22;24934;52.752;6.964;2022-12-18T09:05:40;-5.20;99.90
39219;DHT22;24934;52.752;6.964;2022-12-18T09:08:06;-5.10;99.90
39219;DHT22;24934;52.752;6.964;2022-12-18T09:10:31;-5.00;99.90
39219;DHT22;24934;52.752;6.964;2022-12-18T09:12:57;-4.90;99.90
39219;DHT22;24934;52.752;6.964;2022-12-18T09:15:23;-4.90;99.90
39219;DHT22;24934;52.752;6.964;2022-12-18T09:17:49;-4.80;99.90
39219;DHT22;24934;52.752;6.964;2022-12-18T09:20:16;-4.80;99.90
39219;DHT22;24934;52.752;6.964;2022-12-18T09:22:42;-4.70;99.90
39219;DHT22;24934;52.752;6.964;2022-12-18T09:25:07;-4.70;99.90
39219;DHT22;24934;52.752;6.964;2022-12-18T09:27:34;-4.60;99.90
39219;DHT22;24934;52.752;6.964;2022-12-18T09:30:00;-4.60;99.90
39219;DHT22;24934;52.752;6.964;2022-12-18T09:32:26;-4.60;99.90
39219;DHT22;24934;52.752;6.964;2022-12-18T09:34:55;-4.60;99.90
39219;DHT22;24934;52.752;6.964;2022-12-18T09:37:23;-4.60;99.90
39219;DHT22;24934;52.752;6.964;2022-12-18T09:39:49;-4.50;99.90
39219;DHT22;24934;52.752;6.964;2022-12-18T09:42:20;-4.50;99.90
39219;DHT22;24934;52.752;6.964;2022-12-18T09:44:50;-4.50;99.90
39219;DHT22;24934;52.752;6.964;2022-12-18T09:47:25;-4.50;99.90
39219;DHT22;24934;52.752;6.964;2022-12-18T09:50:07;-4.40;99.90
39219;DHT22;24934;52.752;6.964;2022-12-18T09:52:45;-4.40;99.90
39219;DHT22;24934;52.752;6.964;2022-12-18T09:55:47;-4.30;99.90
39219;DHT22;24934;52.752;6.964;2022-12-18T09:58:15;-4.20;99.90
39219;DHT22;24934;52.752;6.964;2022-12-18T10:00:42;-4.10;99.90
39219;DHT22;24934;52.752;6.964;2022-12-18T10:03:12;-4.10;99.90
39219;DHT22;24934;52.752;6.964;2022-12-18T10:06:06;-4.00;99.90
39219;DHT22;24934;52.752;6.964;2022-12-18T10:08:44;-3.90;99.90
39219;DHT22;24934;52.752;6.964;2022-12-18T10:14:22;-3.60;99.90
39219;DHT22;24934;52.752;6.964;2022-12-18T10:16:56;-3.50;99.90
39219;DHT22;24934;52.752;6.964;2022-12-18T10:27:26;-3.20;99.90
39219;DHT22;24934;52.752;6.964;2022-12-18T10:29:52;-3.20;99.90
39219;DHT22;24934;52.752;6.964;2022-12-18T10:32:28;-3.10;99.90
39219;DHT22;24934;52.752;6.964;2022-12-18T10:34:56;-3.20;99.90
39219;DHT22;24934;52.752;6.964;2022-12-18T10:37:25;-3.20;99.90
39219;DHT22;24934;52.752;6.964;2022-12-18T10:40:14;-3.20;99.90
39219;DHT22;24934;52.752;6.964;2022-12-18T10:42:43;-3.30;99.90
39219;DHT22;24934;52.752;6.964;2022-12-18T10:45:16;-3.30;99.90
39219;DHT22;24934;52.752;6.964;2022-12-18T10:47:47;-3.20;99.90
39219;DHT22;24934;52.752;6.964;2022-12-18T10:50:30;-3.20;99.90
39219;DHT22;24934;52.752;6.964;2022-12-18T10:53:01;-3.10;99.90
39219;DHT22;24934;52.752;6.964;2022-12-18T10:55:36;-3.10;99.90
39219;DHT22;24934;52.752;6.964;2022-12-18T10:58:30;-3.00;99.90
39219;DHT22;24934;52.752;6.964;2022-12-18T11:03:42;-2.90;99.90
39219;DHT22;24934;52.752;6.964;2022-12-18T11:08:35;-2.80;99.90
39219;DHT22;24934;52.752;6.964;2022-12-18T11:11:01;-2.80;99.90
39219;DHT22;24934;52.752;6.964;2022-12-18T11:13:29;-2.70;99.90
39219;DHT22;24934;52.752;6.964;2022-12-18T11:15:55;-2.70;99.90
39219;DHT22;24934;52.752;6.964;2022-12-18T11:18:33;-2.80;99.90
39219;DHT22;24934;52.752;6.964;2022-12-18T11:21:07;-2.70;99.90
39219;DHT22;24934;52.752;6.964;2022-12-18T11:23:33;-2.70;99.90
39219;DHT22;24934;52.752;6.964;2022-12-18T11:26:02;-2.70;99.90
39219;DHT22;24934;52.752;6.964;2022-12-18T11:28:29;-2.70;99.90
39219;DHT22;24934;52.752;6.964;2022-12-18T11:31:19;-2.60;99.90
39219;DHT22;24934;52.752;6.964;2022-12-18T11:34:02;-2.50;99.90
39219;DHT22;24934;52.752;6.964;2022-12-18T11:36:33;-2.50;99.90
39219;DHT22;24934;52.752;6.964;2022-12-18T11:39:05;-2.50;99.90
39219;DHT22;24934;52.752;6.964;2022-12-18T11:42:11;-2.40;99.90
39219;DHT22;24934;52.752;6.964;2022-12-18T11:47:25;-2.30;99.90
39219;DHT22;24934;52.752;6.964;2022-12-18T11:49:55;-2.30;99.90
39219;DHT22;24934;52.752;6.964;2022-12-18T11:52:38;-2.30;99.90
39219;DHT22;24934;52.752;6.964;2022-12-18T11:59:03;-2.20;99.90
39219;DHT22;24934;52.752;6.964;2022-12-18T12:15:53;-2.00;99.90
39219;DHT22;24934;52.752;6.964;2022-12-18T12:18:28;-2.00;99.90
39219;DHT22;24934;52.752;6.964;2022-12-18T12:30:32;-1.90;99.90
39219;DHT22;24934;52.752;6.964;2022-12-18T12:33:06;-2.00;99.90
39219;DHT22;24934;52.752;6.964;2022-12-18T12:38:41;-2.00;99.90
39219;DHT22;24934;52.752;6.964;2022-12-18T12:41:17;-2.00;99.90
39219;DHT22;24934;52.752;6.964;2022-12-18T12:44:05;-2.00;99.90
39219;DHT22;24934;52.752;6.964;2022-12-18T12:46:38;-2.00;99.90
39219;DHT22;24934;52.752;6.964;2022-12-18T12:49:20;-2.00;99.90
39219;DHT22;24934;52.752;6.964;2022-12-18T12:52:06;-2.00;99.90
39219;DHT22;24934;52.752;6.964;2022-12-18T12:54:34;-2.00;99.90
39219;DHT22;24934;52.752;6.964;2022-12-18T12:57:07;-2.00;99.90
39219;DHT22;24934;52.752;6.964;2022-12-18T13:00:05;-1.90;99.90
39219;DHT22;24934;52.752;6.964;2022-12-18T13:06:00;-1.90;99.90
39219;DHT22;24934;52.752;6.964;2022-12-18T13:08:34;-1.80;99.90
39219;DHT22;24934;52.752;6.964;2022-12-18T13:14:27;-1.80;99.90
39219;DHT22;24934;52.752;6.964;2022-12-18T13:17:31;-1.70;99.90
39219;DHT22;24934;52.752;6.964;2022-12-18T13:20:10;-1.70;99.90
39219;DHT22;24934;52.752;6.964;2022-12-18T13:22:48;-1.70;99.90
39219;DHT22;24934;52.752;6.964;2022-12-18T13:25:34;-1.70;99.90
39219;DHT22;24934;52.752;6.964;2022-12-18T13:28:08;-1.70;99.90
39219;DHT22;24934;52.752;6.964;2022-12-18T13:46:30;-1.70;99.90
39219;DHT22;24934;52.752;6.964;2022-12-18T13:51:52;-1.80;99.90
39219;DHT22;24934;52.752;6.964;2022-12-18T13:54:36;-1.80;99.90
39219;DHT22;24934;52.752;6.964;2022-12-18T13:57:03;-1.80;99.90
39219;DHT22;24934;52.752;6.964;2022-12-18T13:59:38;-1.80;99.90
39219;DHT22;24934;52.752;6.964;2022-12-18T14:02:14;-1.80;99.90
39219;DHT22;24934;52.752;6.964;2022-12-18T14:04:45;-1.90;99.90
39219;DHT22;24934;52.752;6.964;2022-12-18T14:07:24;-1.90;99.90
39219;DHT22;24934;52.752;6.964;2022-12-18T14:17:49;-2.00;99.90
39219;DHT22;24934;52.752;6.964;2022-12-18T14:20:20;-2.10;99.90
39219;DHT22;24934;52.752;6.964;2022-12-18T14:22:48;-2.10;99.90
39219;DHT22;24934;52.752;6.964;2022-12-18T14:30:37;-2.20;99.90
39219;DHT22;24934;52.752;6.964;2022-12-18T14:35:41;-2.20;99.90
39219;DHT22;24934;52.752;6.964;2022-12-18T14:43:34;-2.20;99.90
39219;DHT22;24934;52.752;6.964;2022-12-18T14:46:02;-2.20;99.90
39219;DHT22;24934;52.752;6.964;2022-12-18T14:48:36;-2.20;99.90
39219;DHT22;24934;52.752;6.964;2022-12-18T14:51:21;-2.20;99.90
39219;DHT22;24934;52.752;6.964;2022-12-18T14:53:53;-2.20;99.90
39219;DHT22;24934;52.752;6.964;2022-12-18T14:56:27;-2.20;99.90
39219;DHT22;24934;52.752;6.964;2022-12-18T14:59:02;-2.20;99.90
39219;DHT22;24934;52.752;6.964;2022-12-18T15:01:36;-2.20;99.90
39219;DHT22;24934;52.752;6.964;2022-12-18T15:04:04;-2.20;99.90
39219;DHT22;24934;52.752;6.964;2022-12-18T15:06:36;-2.20;99.90
39219;DHT22;24934;52.752;6.964;2022-12-18T15:09:20;-2.20;99.90
39219;DHT22;24934;52.752;6.964;2022-12-18T15:11:47;-2.20;99.90
39219;DHT22;24934;52.752;6.964;2022-12-18T15:14:38;-2.10;99.90
39219;DHT22;24934;52.752;6.964;2022-12-18T15:17:14;-2.10;99.90
39219;DHT22;24934;52.752;6.964;2022-12-18T15:19:41;-2.20;99.90
39219;DHT22;24934;52.752;6.964;2022-12-18T15:24:45;-2.20;99.90
39219;DHT22;24934;52.752;6.964;2022-12-18T15:27:33;-2.20;99.90
39219;DHT22;24934;52.752;6.964;2022-12-18T15:32:36;-2.20;99.90
39219;DHT22;24934;52.752;6.964;2022-12-18T15:37:34;-2.20;99.90
39219;DHT22;24934;52.752;6.964;2022-12-18T15:40:00;-2.20;99.90
39219;DHT22;24934;52.752;6.964;2022-12-18T15:42:27;-2.20;99.90
39219;DHT22;24934;52.752;6.964;2022-12-18T15:45:14;-2.20;99.90
39219;DHT22;24934;52.752;6.964;2022-12-18T15:47:40;-2.20;99.90
39219;DHT22;24934;52.752;6.964;2022-12-18T15:50:09;-2.20;99.90
39219;DHT22;24934;52.752;6.964;2022-12-18T15:52:46;-2.20;99.90
39219;DHT22;24934;52.752;6.964;2022-12-18T15:55:18;-2.20;99.90
39219;DHT22;24934;52.752;6.964;2022-12-18T15:58:04;-2.20;99.90
39219;DHT22;24934;52.752;6.964;2022-12-18T16:00:30;-2.10;99.90
39219;DHT22;24934;52.752;6.964;2022-12-18T16:02:59;-2.20;99.90
39219;DHT22;24934;52.752;6.964;2022-12-18T16:05:26;-2.10;99.90
39219;DHT22;24934;52.752;6.964;2022-12-18T16:07:52;-2.20;99.90
39219;DHT22;24934;52.752;6.964;2022-12-18T16:10:18;-2.10;99.90
39219;DHT22;24934;52.752;6.964;2022-12-18T16:12:43;-2.10;99.90
39219;DHT22;24934;52.752;6.964;2022-12-18T16:15:15;-2.10;99.90
39219;DHT22;24934;52.752;6.964;2022-12-18T16:17:45;-2.00;99.90
39219;DHT22;24934;52.752;6.964;2022-12-18T16:20:19;-2.00;99.90
39219;DHT22;24934;52.752;6.964;2022-12-18T16:22:46;-2.00;99.90
39219;DHT22;24934;52.752;6.964;2022-12-18T16:25:24;-2.00;99.90
39219;DHT22;24934;52.752;6.964;2022-12-18T16:27:51;-2.00;99.90
39219;DHT22;24934;52.752;6.964;2022-12-18T16:30:27;-2.00;99.90
39219;DHT22;24934;52.752;6.964;2022-12-18T16:32:54;-2.00;99.90
39219;DHT22;24934;52.752;6.964;2022-12-18T16:35:23;-2.00;99.90
39219;DHT22;24934;52.752;6.964;2022-12-18T16:37:56;-2.10;99.90
39219;DHT22;24934;52.752;6.964;2022-12-18T16:40:22;-2.00;99.90
39219;DHT22;24934;52.752;6.964;2022-12-18T16:42:48;-2.00;99.90
39219;DHT22;24934;52.752;6.964;2022-12-18T16:45:17;-2.00;99.90
39219;DHT22;24934;52.752;6.964;2022-12-18T16:47:44;-2.00;99.90
39219;DHT22;24934;52.752;6.964;2022-12-18T16:50:10;-1.90;99.90
39219;DHT22;24934;52.752;6.964;2022-12-18T16:52:36;-1.90;99.90
39219;DHT22;24934;52.752;6.964;2022-12-18T16:55:04;-1.90;99.90
39219;DHT22;24934;52.752;6.964;2022-12-18T16:57:30;-1.90;99.90
39219;DHT22;24934;52.752;6.964;2022-12-18T16:59:56;-1.80;99.90
39219;DHT22;24934;52.752;6.964;2022-12-18T17:02:23;-1.80;99.90
39219;DHT22;24934;52.752;6.964;2022-12-18T17:04:51;-1.80;99.90
39219;DHT22;24934;52.752;6.964;2022-12-18T17:07:17;-1.80;99.90
39219;DHT22;24934;52.752;6.964;2022-12-18T17:09:43;-1.80;99.90
39219;DHT22;24934;52.752;6.964;2022-12-18T17:12:11;-1.70;99.90
39219;DHT22;24934;52.752;6.964;2022-12-18T17:14:39;-1.70;99.90
39219;DHT22;24934;52.752;6.964;2022-12-18T17:17:08;-1.70;99.90
39219;DHT22;24934;52.752;6.964;2022-12-18T17:19:34;-1.80;99.90
39219;DHT22;24934;52.752;6.964;2022-12-18T17:21:59;-1.80;99.90
39219;DHT22;24934;52.752;6.964;2022-12-18T17:24:25;-1.70;99.90
39219;DHT22;24934;52.752;6.964;2022-12-18T17:26:51;-1.70;99.90
39219;DHT22;24934;52.752;6.964;2022-12-18T17:29:18;-1.60;99.90
39219;DHT22;24934;52.752;6.964;2022-12-18T17:31:45;-1.70;99.90
39219;DHT22;24934;52.752;6.964;2022-12-18T17:34:11;-1.70;99.90
39219;DHT22;24934;52.752;6.964;2022-12-18T17:36:37;-1.70;99.90
39219;DHT22;24934;52.752;6.964;2022-12-18T17:39:05;-1.70;99.90
39219;DHT22;24934;52.752;6.964;2022-12-18T17:41:31;-1.70;99.90
39219;DHT22;24934;52.752;6.964;2022-12-18T17:44:02;-1.60;99.90
39219;DHT22;24934;52.752;6.964;2022-12-18T17:46:32;-1.60;99.90
39219;DHT22;24934;52.752;6.964;2022-12-18T17:49:02;-1.70;99.90
39219;DHT22;24934;52.752;6.964;2022-12-18T17:51:28;-1.60;99.90